createdAt,value
2022-10-10T00:00:06.830Z,17.64
2022-10-10T00:02:55.829Z,17.63
2022-10-10T00:05:24.859Z,17.65
2022-10-10T00:07:53.689Z,17.65
2022-10-10T00:10:22.939Z,17.63
2022-10-10T00:12:52.554Z,17.61
2022-10-10T00:15:21.765Z,17.58
2022-10-10T00:17:51.246Z,17.56
2022-10-10T00:20:20.745Z,17.55
2022-10-10T00:22:49.900Z,17.53
2022-10-10T00:25:19.164Z,17.49
2022-10-10T00:27:48.231Z,17.47
2022-10-10T00:30:17.407Z,17.45
2022-10-10T00:32:46.486Z,17.43
2022-10-10T00:35:15.408Z,17.40
2022-10-10T00:37:44.205Z,17.41
2022-10-10T00:40:13.190Z,17.40
2022-10-10T00:42:42.058Z,17.37
2022-10-10T00:45:26.178Z,17.33
2022-10-10T00:48:00.468Z,17.33
2022-10-10T00:50:31.401Z,17.34
2022-10-10T00:53:01.094Z,17.33
2022-10-10T00:55:30.307Z,17.34
2022-10-10T00:57:59.562Z,17.32
2022-10-10T01:00:28.638Z,17.30
2022-10-10T01:02:57.548Z,17.30
2022-10-10T01:05:26.727Z,17.28
2022-10-10T01:07:56.300Z,17.26
2022-10-10T01:10:25.548Z,17.22
2022-10-10T01:13:05.010Z,17.20
2022-10-10T01:15:46.185Z,17.19
2022-10-10T01:18:24.503Z,17.18
2022-10-10T01:21:09.100Z,17.19
2022-10-10T01:24:12.335Z,17.17
2022-10-10T01:27:12.355Z,17.14
2022-10-10T01:29:45.663Z,17.12
2022-10-10T01:32:23.187Z,17.12
2022-10-10T01:35:01.791Z,17.11
2022-10-10T01:37:40.536Z,17.09
2022-10-10T01:40:18.000Z,17.04
2022-10-10T01:42:51.794Z,17.00
2022-10-10T01:45:21.603Z,16.98
2022-10-10T01:47:51.267Z,16.99
2022-10-10T01:50:23.558Z,16.98
2022-10-10T01:53:06.076Z,16.97
2022-10-10T01:55:48.075Z,16.97
2022-10-10T01:58:37.140Z,16.97
2022-10-10T02:01:14.969Z,16.93
2022-10-10T02:03:47.985Z,16.91
2022-10-10T02:06:23.845Z,16.91
2022-10-10T02:08:57.780Z,16.89
2022-10-10T02:11:30.475Z,16.87
2022-10-10T02:14:03.573Z,16.83
2022-10-10T02:16:37.529Z,16.80
2022-10-10T02:19:10.495Z,16.82
2022-10-10T02:21:40.501Z,16.81
2022-10-10T02:24:11.982Z,16.81
2022-10-10T02:26:44.844Z,16.81
2022-10-10T02:29:20.008Z,16.80
2022-10-10T02:31:55.500Z,16.77
2022-10-10T02:34:28.188Z,16.74
2022-10-10T02:36:59.662Z,16.70
2022-10-10T02:39:33.296Z,16.69
2022-10-10T02:42:03.548Z,16.65
2022-10-10T02:44:33.457Z,16.62
2022-10-10T02:47:03.111Z,16.63
2022-10-10T02:49:34.037Z,16.59
2022-10-10T02:52:03.643Z,16.57
2022-10-10T02:54:32.702Z,16.56
2022-10-10T02:57:01.726Z,16.55
2022-10-10T02:59:30.499Z,16.53
2022-10-10T03:01:59.441Z,16.53
2022-10-10T03:04:28.761Z,16.53
2022-10-10T03:06:57.722Z,16.52
2022-10-10T03:09:26.718Z,16.50
2022-10-10T03:11:55.773Z,16.48
2022-10-10T03:14:24.552Z,16.49
2022-10-10T03:16:53.423Z,16.47
2022-10-10T03:19:22.587Z,16.48
2022-10-10T03:21:51.464Z,16.44
2022-10-10T03:24:20.506Z,16.44
2022-10-10T03:26:49.394Z,16.41
2022-10-10T03:29:18.193Z,16.38
2022-10-10T03:31:47.021Z,16.36
2022-10-10T03:34:16.142Z,16.34
2022-10-10T03:36:45.004Z,16.33
2022-10-10T03:39:13.886Z,16.34
2022-10-10T03:41:42.931Z,16.32
2022-10-10T03:44:12.019Z,16.31
2022-10-10T03:46:40.793Z,16.30
2022-10-10T03:49:09.848Z,16.30
2022-10-10T03:51:38.854Z,16.31
2022-10-10T03:54:07.731Z,16.31
2022-10-10T03:56:36.901Z,16.30
2022-10-10T03:59:06.109Z,16.30
2022-10-10T04:01:35.159Z,16.29
2022-10-10T04:04:05.064Z,16.25
2022-10-10T04:06:33.932Z,16.20
2022-10-10T04:09:03.729Z,16.15
2022-10-10T04:11:32.914Z,16.12
2022-10-10T04:14:02.106Z,16.07
2022-10-10T04:16:32.835Z,16.04
2022-10-10T04:19:02.496Z,16.01
2022-10-10T04:21:33.837Z,16.03
2022-10-10T04:24:05.651Z,16.04
2022-10-10T04:26:34.544Z,16.03
2022-10-10T04:29:03.968Z,15.98
2022-10-10T04:31:33.137Z,15.97
2022-10-10T04:34:02.124Z,15.93
2022-10-10T04:36:31.329Z,15.88
2022-10-10T04:39:00.763Z,15.87
2022-10-10T04:41:29.701Z,15.88
2022-10-10T04:43:59.088Z,15.89
2022-10-10T04:46:28.210Z,15.89
2022-10-10T04:48:57.416Z,15.88
2022-10-10T04:51:26.619Z,15.87
2022-10-10T04:53:55.611Z,15.86
2022-10-10T04:56:25.834Z,15.84
2022-10-10T04:58:54.778Z,15.84
2022-10-10T05:01:23.892Z,15.82
2022-10-10T05:03:53.540Z,15.80
2022-10-10T05:06:22.412Z,15.83
2022-10-10T05:08:51.356Z,15.83
2022-10-10T05:11:20.242Z,15.81
2022-10-10T05:13:50.165Z,15.80
2022-10-10T05:16:19.512Z,15.80
2022-10-10T05:18:48.589Z,15.80
2022-10-10T05:21:17.492Z,15.81
2022-10-10T05:23:50.997Z,15.82
2022-10-10T05:26:20.564Z,15.83
2022-10-10T05:28:49.744Z,15.83
2022-10-10T05:31:18.882Z,15.82
2022-10-10T05:33:48.078Z,15.81
2022-10-10T05:36:17.163Z,15.83
2022-10-10T05:38:46.166Z,15.87
2022-10-10T05:41:15.684Z,15.88
2022-10-10T05:43:44.527Z,15.91
2022-10-10T05:46:14.322Z,15.93
2022-10-10T05:48:43.506Z,15.95
2022-10-10T05:51:12.633Z,15.97
2022-10-10T05:53:41.725Z,15.99
2022-10-10T05:56:11.436Z,16.01
2022-10-10T05:58:40.381Z,16.03
2022-10-10T06:01:09.658Z,16.03
2022-10-10T06:03:38.965Z,16.05
2022-10-10T06:06:08.692Z,16.10
2022-10-10T06:08:37.489Z,16.13
2022-10-10T06:11:07.817Z,16.17
2022-10-10T06:13:38.215Z,16.20
2022-10-10T06:16:07.764Z,16.20
2022-10-10T06:18:36.943Z,16.23
2022-10-10T06:21:08.029Z,16.26
2022-10-10T06:23:37.244Z,16.25
2022-10-10T06:26:06.398Z,16.26
2022-10-10T06:28:35.610Z,16.29
2022-10-10T06:31:07.826Z,16.32
2022-10-10T06:33:42.686Z,16.37
2022-10-10T06:36:18.629Z,16.40
2022-10-10T06:38:47.534Z,16.39
2022-10-10T06:41:16.340Z,16.39
2022-10-10T06:43:45.627Z,16.38
2022-10-10T06:46:14.705Z,16.40
2022-10-10T06:48:43.606Z,16.40
2022-10-10T06:51:15.244Z,16.41
2022-10-10T06:53:44.726Z,16.39
2022-10-10T06:56:24.966Z,16.40
2022-10-10T06:58:56.769Z,16.44
2022-10-10T07:01:26.646Z,16.46
2022-10-10T07:03:56.059Z,16.49
2022-10-10T07:06:25.481Z,16.52
2022-10-10T07:08:54.850Z,16.52
2022-10-10T07:11:23.958Z,16.51
2022-10-10T07:13:53.651Z,16.51
2022-10-10T07:16:23.135Z,16.57
2022-10-10T07:18:52.344Z,16.62
2022-10-10T07:21:21.357Z,16.64
2022-10-10T07:23:50.518Z,16.67
2022-10-10T07:26:21.742Z,16.67
2022-10-10T07:28:50.841Z,16.66
2022-10-10T07:31:20.029Z,16.66
2022-10-10T07:33:50.757Z,16.66
2022-10-10T07:36:20.573Z,16.68
2022-10-10T07:38:51.868Z,16.71
2022-10-10T07:41:21.323Z,16.76
2022-10-10T07:43:56.162Z,16.80
2022-10-10T07:46:25.462Z,16.81
2022-10-10T07:48:55.356Z,16.84
2022-10-10T07:51:24.321Z,16.90
2022-10-10T07:53:53.474Z,16.95
2022-10-10T07:56:22.709Z,16.97
2022-10-10T07:58:52.027Z,16.99
2022-10-10T08:01:21.067Z,17.01
2022-10-10T08:03:50.200Z,17.04
2022-10-10T08:06:19.171Z,17.08
2022-10-10T08:08:51.720Z,17.11
2022-10-10T08:11:22.399Z,17.13
2022-10-10T08:13:51.561Z,17.16
2022-10-10T08:16:20.917Z,17.19
2022-10-10T08:18:50.090Z,17.20
2022-10-10T08:21:19.031Z,17.23
2022-10-10T08:23:48.154Z,17.27
2022-10-10T08:26:19.423Z,17.28
2022-10-10T08:28:48.919Z,17.32
2022-10-10T08:31:20.655Z,17.36
2022-10-10T08:33:51.564Z,17.42
2022-10-10T08:36:23.230Z,17.48
2022-10-10T08:38:56.782Z,17.51
2022-10-10T08:41:35.005Z,17.56
2022-10-10T08:44:12.625Z,17.61
2022-10-10T08:46:48.996Z,17.66
2022-10-10T08:49:43.031Z,17.72
2022-10-10T08:52:33.588Z,17.77
2022-10-10T08:55:07.501Z,17.88
2022-10-10T08:57:47.497Z,17.97
2022-10-10T09:00:19.059Z,18.05
2022-10-10T09:03:32.991Z,18.11
2022-10-10T09:06:14.153Z,18.12
2022-10-10T09:08:53.126Z,18.15
2022-10-10T09:11:44.895Z,18.14
2022-10-10T09:14:25.338Z,18.14
2022-10-10T09:17:17.723Z,18.13
2022-10-10T09:20:00.143Z,18.13
2022-10-10T09:22:33.560Z,18.12
2022-10-10T09:25:08.273Z,18.10
2022-10-10T09:27:42.025Z,18.09
2022-10-10T09:30:18.158Z,18.11
2022-10-10T09:32:55.497Z,18.13
2022-10-10T09:35:27.357Z,18.14
2022-10-10T09:38:03.150Z,18.15
2022-10-10T09:40:53.872Z,18.16
2022-10-10T09:43:29.325Z,18.16
2022-10-10T09:45:59.431Z,18.15
2022-10-10T09:48:32.680Z,18.19
2022-10-10T09:51:04.638Z,18.20
2022-10-10T09:53:34.487Z,18.19
2022-10-10T09:56:15.929Z,18.22
2022-10-10T09:58:47.198Z,18.27
2022-10-10T10:01:19.643Z,18.31
2022-10-10T10:04:29.510Z,18.33
2022-10-10T10:07:08.375Z,18.35
2022-10-10T10:09:38.853Z,18.38
2022-10-10T10:12:07.936Z,18.36
2022-10-10T10:14:38.717Z,18.34
2022-10-10T10:17:10.058Z,18.39
2022-10-10T10:19:41.183Z,18.46
2022-10-10T10:22:41.157Z,18.52
2022-10-10T10:25:32.507Z,18.60
2022-10-10T10:28:21.140Z,18.69
2022-10-10T10:30:57.444Z,18.76
2022-10-10T10:33:43.349Z,18.80
2022-10-10T10:36:25.610Z,18.84
2022-10-10T10:39:00.840Z,18.89
2022-10-10T10:41:35.987Z,18.93
2022-10-10T10:44:24.491Z,18.96
2022-10-10T10:47:05.976Z,19.00
2022-10-10T10:49:43.459Z,19.01
2022-10-10T10:52:26.129Z,19.03
2022-10-10T10:55:17.840Z,19.07
2022-10-10T10:58:48.781Z,19.12
2022-10-10T11:01:28.798Z,19.13
2022-10-10T11:05:18.389Z,19.19
2022-10-10T11:09:56.446Z,19.30
2022-10-10T11:12:50.143Z,19.33
2022-10-10T11:15:30.777Z,19.32
2022-10-10T11:18:13.639Z,19.34
2022-10-10T11:20:45.949Z,19.36
2022-10-10T11:23:21.757Z,19.40
2022-10-10T11:26:03.333Z,19.42
2022-10-10T11:28:37.498Z,19.43
2022-10-10T11:31:17.069Z,19.46
2022-10-10T11:33:51.175Z,19.51
2022-10-10T11:36:23.762Z,19.57
2022-10-10T11:38:57.590Z,19.60
2022-10-10T11:41:33.909Z,19.63
2022-10-10T11:44:12.287Z,19.68
2022-10-10T11:47:22.088Z,19.72
2022-10-10T11:49:57.278Z,19.80
2022-10-10T11:52:59.844Z,19.88
2022-10-10T11:55:41.553Z,19.94
2022-10-10T11:58:28.160Z,20.01
2022-10-10T12:01:00.872Z,20.07
2022-10-10T12:03:30.078Z,20.13
2022-10-10T12:06:04.470Z,20.20
2022-10-10T12:08:39.681Z,20.25
2022-10-10T12:11:17.329Z,20.31
2022-10-10T12:13:56.628Z,20.36
2022-10-10T12:16:30.790Z,20.41
2022-10-10T12:19:05.883Z,20.40
2022-10-10T12:21:56.968Z,20.43
2022-10-10T12:24:27.333Z,20.48
2022-10-10T12:27:24.541Z,20.45
2022-10-10T12:30:26.945Z,20.49
2022-10-10T12:32:57.012Z,20.56
2022-10-10T12:35:36.186Z,20.66
2022-10-10T12:38:13.349Z,20.75
2022-10-10T12:41:11.557Z,20.80
2022-10-10T12:43:48.254Z,20.87
2022-10-10T12:46:29.904Z,20.92
2022-10-10T12:49:06.323Z,20.98
2022-10-10T12:51:36.880Z,21.06
2022-10-10T12:54:07.945Z,21.12
2022-10-10T12:56:43.574Z,21.17
2022-10-10T12:59:23.955Z,21.24
2022-10-10T13:01:58.322Z,21.31
2022-10-10T13:04:28.232Z,21.34
2022-10-10T13:07:01.198Z,21.38
2022-10-10T13:09:43.921Z,21.38
2022-10-10T13:12:23.569Z,21.38
2022-10-10T13:14:52.806Z,21.36
2022-10-10T13:17:32.948Z,21.33
2022-10-10T13:20:05.578Z,21.35
2022-10-10T13:22:37.191Z,21.39
2022-10-10T13:25:11.823Z,21.41
2022-10-10T13:27:45.727Z,21.42
2022-10-10T13:30:20.214Z,21.41
2022-10-10T13:32:54.592Z,21.44
2022-10-10T13:35:50.791Z,21.48
2022-10-10T13:38:25.828Z,21.52
2022-10-10T13:40:55.510Z,21.56
2022-10-10T13:43:27.098Z,21.67
2022-10-10T13:46:01.977Z,21.80
2022-10-10T13:48:40.569Z,21.89
2022-10-10T13:51:11.287Z,21.94
2022-10-10T13:53:51.618Z,21.95
2022-10-10T13:56:26.937Z,21.93
2022-10-10T13:59:04.948Z,21.94
2022-10-10T14:01:37.031Z,21.95
2022-10-10T14:04:22.138Z,21.95
2022-10-10T14:06:58.880Z,22.02
2022-10-10T14:09:31.825Z,22.09
2022-10-10T14:12:03.900Z,22.19
2022-10-10T14:14:43.586Z,22.30
2022-10-10T14:17:12.776Z,22.35
2022-10-10T14:19:43.152Z,22.32
2022-10-10T14:22:12.115Z,22.28
2022-10-10T14:24:41.208Z,22.22
2022-10-10T14:27:16.697Z,22.19
2022-10-10T14:29:46.102Z,22.11
2022-10-10T14:32:16.120Z,22.00
2022-10-10T14:34:45.246Z,21.88
2022-10-10T14:37:19.620Z,21.76
2022-10-10T14:39:48.923Z,21.66
2022-10-10T14:42:19.846Z,21.56
2022-10-10T14:44:49.636Z,21.48
2022-10-10T14:47:20.789Z,21.39
2022-10-10T14:49:52.148Z,21.31
2022-10-10T14:52:21.181Z,21.26
2022-10-10T14:54:50.166Z,21.18
2022-10-10T14:57:19.562Z,21.10
2022-10-10T14:59:50.219Z,21.01
2022-10-10T15:02:21.508Z,20.91
2022-10-10T15:04:51.482Z,20.86
2022-10-10T15:07:20.718Z,20.81
2022-10-10T15:10:30.852Z,20.74
2022-10-10T15:12:41.067Z,20.63
2022-10-10T15:15:12.588Z,20.56
2022-10-10T15:17:42.226Z,20.49
2022-10-10T15:20:13.205Z,20.39
2022-10-10T15:22:44.850Z,20.31
2022-10-10T15:25:13.720Z,20.26
2022-10-10T15:27:42.716Z,20.19
2022-10-10T15:30:13.894Z,20.11
2022-10-10T15:32:42.827Z,20.04
2022-10-10T15:35:15.838Z,19.98
2022-10-10T15:37:45.798Z,19.91
2022-10-10T15:40:17.751Z,19.84
2022-10-10T15:42:47.007Z,19.78
2022-10-10T15:45:37.057Z,19.71
2022-10-10T15:48:06.561Z,19.62
2022-10-10T15:50:38.654Z,19.54
2022-10-10T15:53:08.192Z,19.46
2022-10-10T15:55:42.346Z,19.39
2022-10-10T15:58:11.773Z,19.34
2022-10-10T16:00:42.267Z,19.29
2022-10-10T16:03:11.373Z,19.24
2022-10-10T16:05:41.961Z,19.15
2022-10-10T16:08:11.958Z,19.08
2022-10-10T16:10:43.326Z,19.01
2022-10-10T16:13:12.461Z,18.96
2022-10-10T16:15:41.512Z,18.89
2022-10-10T16:18:10.685Z,18.83
2022-10-10T16:20:39.779Z,18.78
2022-10-10T16:23:08.728Z,18.74
2022-10-10T16:25:37.507Z,18.69
2022-10-10T16:28:06.527Z,18.64
2022-10-10T16:30:35.772Z,18.62
2022-10-10T16:33:04.889Z,18.59
2022-10-10T16:35:37.448Z,18.54
2022-10-10T16:38:06.572Z,18.52
2022-10-10T16:40:36.386Z,18.49
2022-10-10T16:43:05.538Z,18.44
2022-10-10T16:45:34.649Z,18.40
2022-10-10T16:48:03.833Z,18.38
2022-10-10T16:50:32.700Z,18.34
2022-10-10T16:53:01.729Z,18.32
2022-10-10T16:55:30.629Z,18.29
2022-10-10T16:57:59.478Z,18.27
2022-10-10T17:00:28.388Z,18.22
2022-10-10T17:02:57.141Z,18.16
2022-10-10T17:05:26.276Z,18.11
2022-10-10T17:07:55.507Z,18.08
2022-10-10T17:10:24.634Z,18.05
2022-10-10T17:12:53.805Z,18.01
2022-10-10T17:15:22.927Z,17.96
2022-10-10T17:17:51.925Z,17.94
2022-10-10T17:20:21.145Z,17.90
2022-10-10T17:22:50.085Z,17.86
2022-10-10T17:25:19.218Z,17.83
2022-10-10T17:27:48.037Z,17.79
2022-10-10T17:30:17.006Z,17.76
2022-10-10T17:32:45.828Z,17.72
2022-10-10T17:35:14.631Z,17.65
2022-10-10T17:37:43.977Z,17.60
2022-10-10T17:40:13.505Z,17.58
2022-10-10T17:42:42.329Z,17.54
2022-10-10T17:45:11.757Z,17.51
2022-10-10T17:47:40.765Z,17.48
2022-10-10T17:50:12.683Z,17.44
2022-10-10T17:52:41.704Z,17.42
2022-10-10T17:55:10.771Z,17.41
2022-10-10T17:57:44.588Z,17.40
2022-10-10T18:00:16.860Z,17.36
2022-10-10T18:02:48.298Z,17.33
2022-10-10T18:05:17.635Z,17.29
2022-10-10T18:07:47.198Z,17.27
2022-10-10T18:10:16.403Z,17.24
2022-10-10T18:12:45.453Z,17.19
2022-10-10T18:15:14.457Z,17.17
2022-10-10T18:17:43.259Z,17.14
2022-10-10T18:20:13.331Z,17.09
2022-10-10T18:23:00.452Z,16.97
2022-10-10T18:28:34.639Z,16.87
2022-10-10T18:31:19.169Z,16.86
2022-10-10T18:33:48.969Z,16.83
2022-10-10T18:36:21.835Z,16.82
2022-10-10T18:39:06.281Z,16.81
2022-10-10T18:41:35.781Z,16.77
2022-10-10T18:44:07.775Z,16.75
2022-10-10T18:46:37.551Z,16.75
2022-10-10T18:49:11.418Z,16.73
2022-10-10T18:51:43.677Z,16.70
2022-10-10T18:54:15.529Z,16.68
2022-10-10T18:56:47.675Z,16.65
2022-10-10T18:59:21.756Z,16.64
2022-10-10T19:01:51.917Z,16.63
2022-10-10T19:04:22.056Z,16.62
2022-10-10T19:06:56.832Z,16.59
2022-10-10T19:09:27.330Z,16.57
2022-10-10T19:11:58.924Z,16.53
2022-10-10T19:14:28.636Z,16.53
2022-10-10T19:16:57.689Z,16.51
2022-10-10T19:19:28.966Z,16.49
2022-10-10T19:21:58.626Z,16.47
2022-10-10T19:24:30.602Z,16.43
2022-10-10T19:27:00.323Z,16.41
2022-10-10T19:29:29.894Z,16.38
2022-10-10T19:31:59.202Z,16.35
2022-10-10T19:34:29.946Z,16.29
2022-10-10T19:37:01.326Z,16.26
2022-10-10T19:39:39.251Z,16.24
2022-10-10T19:42:08.691Z,16.20
2022-10-10T19:44:38.199Z,16.19
2022-10-10T19:47:10.450Z,16.20
2022-10-10T19:49:42.415Z,16.19
2022-10-10T19:52:11.448Z,16.16
2022-10-10T19:54:45.588Z,16.13
2022-10-10T19:57:15.028Z,16.13
2022-10-10T19:59:49.472Z,16.12
2022-10-10T20:02:22.726Z,16.12
2022-10-10T20:04:55.752Z,16.11
2022-10-10T20:07:25.469Z,16.10
2022-10-10T20:09:57.975Z,16.12
2022-10-10T20:12:27.202Z,16.13
2022-10-10T20:14:56.274Z,16.13
2022-10-10T20:17:26.206Z,16.13
2022-10-10T20:19:55.103Z,16.14
2022-10-10T20:22:24.417Z,16.17
2022-10-10T20:24:53.674Z,16.19
2022-10-10T20:27:22.791Z,16.22
2022-10-10T20:29:52.196Z,16.24
2022-10-10T20:32:21.531Z,16.26
2022-10-10T20:34:50.765Z,16.28
2022-10-10T20:37:19.933Z,16.29
2022-10-10T20:39:48.787Z,16.31
2022-10-10T20:42:17.995Z,16.32
2022-10-10T20:44:49.197Z,16.34
2022-10-10T20:47:18.112Z,16.35
2022-10-10T20:49:47.009Z,16.36
2022-10-10T20:52:15.987Z,16.37
2022-10-10T20:54:44.832Z,16.37
2022-10-10T20:57:17.186Z,16.39
2022-10-10T20:59:46.287Z,16.40
2022-10-10T21:02:19.252Z,16.41
2022-10-10T21:04:49.061Z,16.45
2022-10-10T21:07:18.191Z,16.48
2022-10-10T21:09:47.189Z,16.50
2022-10-10T21:12:16.565Z,16.51
2022-10-10T21:14:45.470Z,16.49
2022-10-10T21:17:14.291Z,16.50
2022-10-10T21:19:43.690Z,16.53
2022-10-10T21:22:12.589Z,16.53
2022-10-10T21:24:41.441Z,16.53
2022-10-10T21:27:10.673Z,16.53
2022-10-10T21:29:39.665Z,16.55
2022-10-10T21:32:08.969Z,16.55
2022-10-10T21:34:38.523Z,16.55
2022-10-10T21:37:08.602Z,16.54
2022-10-10T21:39:47.867Z,16.54
2022-10-10T21:42:16.995Z,16.52
2022-10-10T21:44:47.548Z,16.51
2022-10-10T21:47:16.650Z,16.49
2022-10-10T21:49:45.658Z,16.51
2022-10-10T21:52:16.471Z,16.51
2022-10-10T21:54:46.240Z,16.51
2022-10-10T21:57:17.611Z,16.51
2022-10-10T21:59:47.041Z,16.53
2022-10-10T22:02:15.918Z,16.53
2022-10-10T22:04:49.422Z,16.52
2022-10-10T22:07:23.244Z,16.50
2022-10-10T22:09:55.836Z,16.50
2022-10-10T22:12:25.362Z,16.51
2022-10-10T22:14:54.508Z,16.51
2022-10-10T22:17:23.793Z,16.51
2022-10-10T22:19:53.044Z,16.52
2022-10-10T22:22:22.132Z,16.51
2022-10-10T22:24:51.210Z,16.51
2022-10-10T22:27:20.480Z,16.53
2022-10-10T22:29:49.587Z,16.52
2022-10-10T22:32:19.031Z,16.52
2022-10-10T22:34:51.132Z,16.52
2022-10-10T22:37:20.358Z,16.51
2022-10-10T22:39:49.457Z,16.49
2022-10-10T22:42:21.883Z,16.48
2022-10-10T22:44:51.375Z,16.47
2022-10-10T22:47:21.257Z,16.46
2022-10-10T22:49:50.637Z,16.39
2022-10-10T22:52:19.539Z,16.37
2022-10-10T22:54:48.515Z,16.37
2022-10-10T22:57:17.830Z,16.32
2022-10-10T22:59:48.118Z,16.25
2022-10-10T23:02:18.268Z,16.23
2022-10-10T23:04:47.365Z,16.19
2022-10-10T23:07:19.408Z,16.14
2022-10-10T23:09:49.149Z,16.10
2022-10-10T23:12:18.220Z,16.05
2022-10-10T23:14:48.472Z,16.01
2022-10-10T23:17:18.582Z,16.01
2022-10-10T23:19:48.445Z,16.00
2022-10-10T23:22:18.251Z,15.98
2022-10-10T23:24:47.997Z,15.95
2022-10-10T23:27:17.146Z,15.94
2022-10-10T23:29:46.316Z,15.95
2022-10-10T23:32:15.566Z,15.93
2022-10-10T23:34:44.655Z,15.87
2022-10-10T23:37:13.385Z,15.82
2022-10-10T23:39:47.469Z,15.79
2022-10-10T23:42:16.305Z,15.75
2022-10-10T23:44:45.216Z,15.72
2022-10-10T23:47:14.378Z,15.72
2022-10-10T23:49:43.594Z,15.76
2022-10-10T23:52:13.169Z,15.76
2022-10-10T23:54:46.938Z,15.72
2022-10-10T23:57:16.072Z,15.67
2022-10-10T23:59:45.208Z,15.61
